createdAt,value
2023-01-27T00:00:39.197Z,79.67
2023-01-27T00:03:06.493Z,82.35
2023-01-27T00:05:33.293Z,82.89
2023-01-27T00:07:59.948Z,83.22
2023-01-27T00:10:27.123Z,81.38
2023-01-27T00:13:12.524Z,80.97
2023-01-27T00:15:39.531Z,80.47
2023-01-27T00:18:06.482Z,81.04
2023-01-27T00:20:51.794Z,80.99
2023-01-27T00:23:39.504Z,80.81
2023-01-27T00:26:09.475Z,80.14
2023-01-27T00:28:37.274Z,79.53
2023-01-27T00:31:04.972Z,80.22
2023-01-27T00:33:31.836Z,80.63
2023-01-27T00:36:04.123Z,79.96
2023-01-27T00:38:33.113Z,79.20
2023-01-27T00:41:18.492Z,79.40
2023-01-27T00:43:49.668Z,79.61
2023-01-27T00:46:18.224Z,82.60
2023-01-27T00:48:45.238Z,81.94
2023-01-27T00:51:13.387Z,81.16
2023-01-27T00:53:40.991Z,81.64
2023-01-27T00:56:08.488Z,80.60
2023-01-27T00:58:35.742Z,80.34
2023-01-27T01:01:05.606Z,80.38
2023-01-27T01:03:33.871Z,79.78
2023-01-27T01:06:04.021Z,80.24
2023-01-27T01:08:32.011Z,82.51
2023-01-27T01:10:58.900Z,82.06
2023-01-27T01:13:27.798Z,80.96
2023-01-27T01:15:55.090Z,80.32
2023-01-27T01:18:22.011Z,81.85
2023-01-27T01:20:48.712Z,80.37
2023-01-27T01:23:15.860Z,82.18
2023-01-27T01:25:43.288Z,81.06
2023-01-27T01:28:10.350Z,80.90
2023-01-27T01:30:38.216Z,80.54
2023-01-27T01:33:06.171Z,79.79
2023-01-27T01:35:38.288Z,79.89
2023-01-27T01:38:05.440Z,79.65
2023-01-27T01:40:32.768Z,79.53
2023-01-27T01:43:01.833Z,80.29
2023-01-27T01:45:31.627Z,80.56
2023-01-27T01:48:00.276Z,80.81
2023-01-27T01:50:27.199Z,80.79
2023-01-27T01:52:54.632Z,80.61
2023-01-27T01:55:21.860Z,79.87
2023-01-27T01:57:48.803Z,83.31
2023-01-27T02:00:16.264Z,85.06
2023-01-27T02:02:48.208Z,85.45
2023-01-27T02:05:20.924Z,83.27
2023-01-27T02:08:06.124Z,83.77
2023-01-27T02:10:34.075Z,83.17
2023-01-27T02:13:01.195Z,82.87
2023-01-27T02:15:29.946Z,81.63
2023-01-27T02:17:56.657Z,80.88
2023-01-27T02:20:38.593Z,82.44
2023-01-27T02:23:27.972Z,81.75
2023-01-27T02:25:58.494Z,82.39
2023-01-27T02:28:28.469Z,83.49
2023-01-27T02:30:55.479Z,81.76
2023-01-27T02:33:22.591Z,82.31
2023-01-27T02:35:52.664Z,81.54
2023-01-27T02:38:19.897Z,83.04
2023-01-27T02:40:49.184Z,82.34
2023-01-27T02:43:15.888Z,83.62
2023-01-27T02:45:42.734Z,82.50
2023-01-27T02:48:09.410Z,81.89
2023-01-27T02:50:36.095Z,80.93
2023-01-27T02:53:03.040Z,81.80
2023-01-27T02:55:29.810Z,81.69
2023-01-27T02:57:56.760Z,80.68
2023-01-27T03:00:46.327Z,83.59
2023-01-27T03:03:13.263Z,82.39
2023-01-27T03:05:41.210Z,82.02
2023-01-27T03:08:08.177Z,81.56
2023-01-27T03:10:35.427Z,80.63
2023-01-27T03:13:02.153Z,80.56
2023-01-27T03:15:47.951Z,80.34
2023-01-27T03:18:16.371Z,81.13
2023-01-27T03:20:45.627Z,80.39
2023-01-27T03:23:14.274Z,79.94
2023-01-27T03:25:47.988Z,81.52
2023-01-27T03:28:15.479Z,81.32
2023-01-27T03:30:48.888Z,83.42
2023-01-27T03:33:23.298Z,81.51
2023-01-27T03:36:11.324Z,80.61
2023-01-27T03:39:03.701Z,80.71
2023-01-27T03:41:49.163Z,79.99
2023-01-27T03:44:35.015Z,79.50
2023-01-27T03:47:01.974Z,78.90
2023-01-27T03:49:28.911Z,79.30
2023-01-27T03:51:56.692Z,80.08
2023-01-27T03:54:23.361Z,79.76
2023-01-27T03:56:50.016Z,79.45
2023-01-27T03:59:17.799Z,79.20
2023-01-27T04:01:44.820Z,79.05
2023-01-27T04:04:30.249Z,78.80
2023-01-27T04:07:02.975Z,78.39
2023-01-27T04:09:36.878Z,78.40
2023-01-27T04:12:06.277Z,77.84
2023-01-27T04:14:38.525Z,78.37
2023-01-27T04:17:08.039Z,78.58
2023-01-27T04:19:34.784Z,79.21
2023-01-27T04:22:02.129Z,79.09
2023-01-27T04:24:29.280Z,79.65
2023-01-27T04:26:58.146Z,79.76
2023-01-27T04:29:28.510Z,79.32
2023-01-27T04:31:56.260Z,78.67
2023-01-27T04:34:22.970Z,78.87
2023-01-27T04:36:49.930Z,78.92
2023-01-27T04:39:17.168Z,78.14
2023-01-27T04:41:45.677Z,77.85
2023-01-27T04:44:13.059Z,78.33
2023-01-27T04:46:40.223Z,78.84
2023-01-27T04:49:07.263Z,80.71
2023-01-27T04:51:34.252Z,80.11
2023-01-27T04:54:01.003Z,79.44
2023-01-27T04:56:29.074Z,79.19
2023-01-27T04:58:59.099Z,79.32
2023-01-27T05:01:25.961Z,78.90
2023-01-27T05:03:52.700Z,78.99
2023-01-27T05:06:19.644Z,78.86
2023-01-27T05:08:46.434Z,78.62
2023-01-27T05:11:13.638Z,78.52
2023-01-27T05:13:41.041Z,79.18
2023-01-27T05:16:23.749Z,78.75
2023-01-27T05:18:52.037Z,78.78
2023-01-27T05:21:28.703Z,79.14
2023-01-27T05:23:55.475Z,78.89
2023-01-27T05:26:24.248Z,79.01
2023-01-27T05:28:51.675Z,78.73
2023-01-27T05:31:24.095Z,78.89
2023-01-27T05:33:53.241Z,78.64
2023-01-27T05:36:21.759Z,78.83
2023-01-27T05:38:48.803Z,79.17
2023-01-27T05:41:17.083Z,78.87
2023-01-27T05:43:44.744Z,78.62
2023-01-27T05:46:13.359Z,78.85
2023-01-27T05:48:51.126Z,78.78
2023-01-27T05:51:20.163Z,79.04
2023-01-27T05:53:47.379Z,78.75
2023-01-27T05:56:16.999Z,78.54
2023-01-27T05:58:44.266Z,78.69
2023-01-27T06:01:19.630Z,78.59
2023-01-27T06:03:46.902Z,78.87
2023-01-27T06:06:15.624Z,78.43
2023-01-27T06:08:42.719Z,78.13
2023-01-27T06:11:09.541Z,78.85
2023-01-27T06:13:38.812Z,78.49
2023-01-27T06:16:10.816Z,78.58
2023-01-27T06:18:38.215Z,78.88
2023-01-27T06:21:07.379Z,78.85
2023-01-27T06:23:34.370Z,78.88
2023-01-27T06:26:03.603Z,78.79
2023-01-27T06:28:30.540Z,78.81
2023-01-27T06:31:05.166Z,78.64
2023-01-27T06:33:31.904Z,78.53
2023-01-27T06:36:10.865Z,79.04
2023-01-27T06:38:37.752Z,78.99
2023-01-27T06:41:04.717Z,79.85
2023-01-27T06:43:31.590Z,80.76
2023-01-27T06:45:58.388Z,80.97
2023-01-27T06:48:25.733Z,80.25
2023-01-27T06:50:53.467Z,79.79
2023-01-27T06:53:20.257Z,79.64
2023-01-27T06:55:47.010Z,79.86
2023-01-27T06:58:14.911Z,79.78
2023-01-27T07:00:42.471Z,79.47
2023-01-27T07:03:11.150Z,79.46
2023-01-27T07:05:39.055Z,79.95
2023-01-27T07:08:05.977Z,82.72
2023-01-27T07:10:32.750Z,82.40
2023-01-27T07:13:10.562Z,81.17
2023-01-27T07:15:37.853Z,80.77
2023-01-27T07:18:05.192Z,80.98
2023-01-27T07:20:32.518Z,80.72
2023-01-27T07:23:01.419Z,80.16
2023-01-27T07:25:29.404Z,81.26
2023-01-27T07:28:00.074Z,80.89
2023-01-27T07:30:27.726Z,80.52
2023-01-27T07:32:55.501Z,80.56
2023-01-27T07:35:23.192Z,80.58
2023-01-27T07:37:50.008Z,80.30
2023-01-27T07:40:17.022Z,80.75
2023-01-27T07:42:43.841Z,80.95
2023-01-27T07:45:10.877Z,80.43
2023-01-27T07:47:37.977Z,80.19
2023-01-27T07:50:05.127Z,80.47
2023-01-27T07:52:31.864Z,80.27
2023-01-27T07:54:58.667Z,81.98
2023-01-27T07:57:25.380Z,81.63
2023-01-27T07:59:55.816Z,82.36
2023-01-27T08:02:23.618Z,82.58
2023-01-27T08:04:53.285Z,86.27
2023-01-27T08:07:20.597Z,86.69
2023-01-27T08:09:47.307Z,85.85
2023-01-27T08:12:14.081Z,87.49
2023-01-27T08:14:40.810Z,86.34
2023-01-27T08:17:07.721Z,87.03
2023-01-27T08:19:34.499Z,88.24
2023-01-27T08:22:01.281Z,88.80
2023-01-27T08:24:28.062Z,87.30
2023-01-27T08:26:55.091Z,86.29
2023-01-27T08:29:21.818Z,86.31
2023-01-27T08:31:48.660Z,85.74
2023-01-27T08:34:17.131Z,86.21
2023-01-27T08:36:43.904Z,85.78
2023-01-27T08:39:11.071Z,85.30
2023-01-27T08:41:38.275Z,85.20
2023-01-27T08:44:05.119Z,85.30
2023-01-27T08:46:31.952Z,86.51
2023-01-27T08:48:58.660Z,88.60
2023-01-27T08:51:25.414Z,87.54
2023-01-27T08:53:52.275Z,88.88
2023-01-27T08:56:19.065Z,89.87
2023-01-27T08:58:47.506Z,89.20
2023-01-27T09:01:15.549Z,90.02
2023-01-27T09:03:42.387Z,89.32
2023-01-27T09:06:11.850Z,90.19
2023-01-27T09:08:39.355Z,89.26
2023-01-27T09:11:14.349Z,88.58
2023-01-27T09:13:41.580Z,88.15
2023-01-27T09:16:08.939Z,88.31
2023-01-27T09:18:36.070Z,88.57
2023-01-27T09:21:04.851Z,87.73
2023-01-27T09:23:32.253Z,88.14
2023-01-27T09:25:58.981Z,90.26
2023-01-27T09:28:25.730Z,91.23
2023-01-27T09:30:57.291Z,90.54
2023-01-27T09:33:26.186Z,89.95
2023-01-27T09:35:57.228Z,90.06
2023-01-27T09:38:24.977Z,90.81
2023-01-27T09:41:10.754Z,89.86
2023-01-27T09:43:50.299Z,90.05
2023-01-27T09:46:17.083Z,90.05
2023-01-27T09:48:52.387Z,89.43
2023-01-27T09:51:53.783Z,89.21
2023-01-27T09:54:32.555Z,91.45
2023-01-27T09:57:17.101Z,90.96
2023-01-27T09:59:54.144Z,91.66
2023-01-27T10:02:43.905Z,91.08
2023-01-27T10:05:32.336Z,91.05
2023-01-27T10:07:58.948Z,91.53
2023-01-27T10:10:37.539Z,91.69
2023-01-27T10:13:23.213Z,92.33
2023-01-27T10:16:01.233Z,91.27
2023-01-27T10:18:45.716Z,92.30
2023-01-27T10:21:25.972Z,91.66
2023-01-27T10:23:58.662Z,91.49
2023-01-27T10:26:37.556Z,93.26
2023-01-27T10:29:17.123Z,93.16
2023-01-27T10:31:49.179Z,92.57
2023-01-27T10:34:28.328Z,91.94
2023-01-27T10:37:41.216Z,91.18
2023-01-27T10:40:15.382Z,92.13
2023-01-27T10:42:53.822Z,92.16
2023-01-27T10:45:23.661Z,92.30
2023-01-27T10:48:04.531Z,92.08
2023-01-27T10:50:35.463Z,92.06
2023-01-27T10:53:17.073Z,92.73
2023-01-27T10:55:53.381Z,91.22
2023-01-27T10:58:43.394Z,91.08
2023-01-27T11:01:21.540Z,90.33
2023-01-27T11:03:59.772Z,90.94
2023-01-27T11:06:31.587Z,91.34
2023-01-27T11:09:17.181Z,91.10
2023-01-27T11:11:44.922Z,90.32
2023-01-27T11:14:16.329Z,90.00
2023-01-27T11:16:49.842Z,89.36
2023-01-27T11:19:24.450Z,88.67
2023-01-27T11:22:06.316Z,88.63
2023-01-27T11:24:50.254Z,90.09
2023-01-27T11:27:17.052Z,88.85
2023-01-27T11:29:55.325Z,88.16
2023-01-27T11:32:39.650Z,89.28
2023-01-27T11:35:12.134Z,88.38
2023-01-27T11:37:41.513Z,89.03
2023-01-27T11:40:21.206Z,88.57
2023-01-27T11:42:48.191Z,87.71
2023-01-27T11:45:17.455Z,89.08
2023-01-27T11:47:44.744Z,88.10
2023-01-27T11:50:20.819Z,89.78
2023-01-27T11:52:54.935Z,88.50
2023-01-27T11:55:27.501Z,87.62
2023-01-27T11:57:59.055Z,87.66
2023-01-27T12:00:29.428Z,90.08
2023-01-27T12:03:20.478Z,88.99
2023-01-27T12:05:53.018Z,88.50
2023-01-27T12:08:38.090Z,89.55
2023-01-27T12:11:26.784Z,89.63
2023-01-27T12:13:55.252Z,89.96
2023-01-27T12:16:25.261Z,88.57
2023-01-27T12:19:02.856Z,89.23
2023-01-27T12:21:50.579Z,88.96
2023-01-27T12:24:38.911Z,90.75
2023-01-27T12:27:06.007Z,89.01
2023-01-27T12:29:41.759Z,87.76
2023-01-27T12:32:40.879Z,88.38
2023-01-27T12:35:19.387Z,88.45
2023-01-27T12:37:46.216Z,87.89
2023-01-27T12:40:21.148Z,87.89
2023-01-27T12:42:51.942Z,88.63
2023-01-27T12:45:30.115Z,86.98
2023-01-27T12:48:16.811Z,86.05
2023-01-27T12:50:54.976Z,85.36
2023-01-27T12:53:27.907Z,85.79
2023-01-27T12:56:14.177Z,84.89
2023-01-27T12:58:55.721Z,87.10
2023-01-27T13:01:30.442Z,87.90
2023-01-27T13:04:14.504Z,87.50
2023-01-27T13:06:43.953Z,87.93
2023-01-27T13:09:27.637Z,86.99
2023-01-27T13:11:56.604Z,87.84
2023-01-27T13:14:23.507Z,88.21
2023-01-27T13:16:54.583Z,87.66
2023-01-27T13:19:23.104Z,88.01
2023-01-27T13:21:51.543Z,88.45
2023-01-27T13:24:25.297Z,90.92
2023-01-27T13:26:52.485Z,90.06
2023-01-27T13:29:26.751Z,87.65
2023-01-27T13:32:06.031Z,89.68
2023-01-27T13:34:39.082Z,88.89
2023-01-27T13:37:16.484Z,87.69
2023-01-27T13:40:14.593Z,88.27
2023-01-27T13:42:44.190Z,88.16
2023-01-27T13:45:20.561Z,87.84
2023-01-27T13:48:18.313Z,86.08
2023-01-27T13:50:48.082Z,86.96
2023-01-27T13:53:17.975Z,87.79
2023-01-27T13:55:52.754Z,86.57
2023-01-27T13:58:44.501Z,86.13
2023-01-27T14:01:38.683Z,85.71
2023-01-27T14:04:17.671Z,86.17
2023-01-27T14:07:18.472Z,86.93
2023-01-27T14:10:02.342Z,84.92
2023-01-27T14:12:55.803Z,85.22
2023-01-27T14:15:27.534Z,84.21
2023-01-27T14:18:17.490Z,84.18
2023-01-27T14:20:46.043Z,83.85
2023-01-27T14:23:33.995Z,82.70
2023-01-27T14:26:11.502Z,81.49
2023-01-27T14:29:06.329Z,81.52
2023-01-27T14:31:48.384Z,82.40
2023-01-27T14:34:36.081Z,81.80
2023-01-27T14:37:10.251Z,81.04
2023-01-27T14:39:53.964Z,80.74
2023-01-27T14:42:29.797Z,80.21
2023-01-27T14:45:21.564Z,80.31
2023-01-27T14:48:14.529Z,82.03
2023-01-27T14:51:03.976Z,81.09
2023-01-27T14:53:47.325Z,80.18
2023-01-27T14:56:20.011Z,80.29
2023-01-27T14:58:54.032Z,81.01
2023-01-27T15:01:20.705Z,79.83
2023-01-27T15:04:08.655Z,81.06
2023-01-27T15:06:41.164Z,81.19
2023-01-27T15:09:42.235Z,82.69
2023-01-27T15:12:18.102Z,81.14
2023-01-27T15:15:00.394Z,81.90
2023-01-27T15:18:09.248Z,81.28
2023-01-27T15:21:13.855Z,81.93
2023-01-27T15:24:11.312Z,81.99
2023-01-27T15:26:38.615Z,81.41
2023-01-27T15:29:05.940Z,80.74
2023-01-27T15:31:33.002Z,79.48
2023-01-27T15:34:23.114Z,81.05
2023-01-27T15:37:20.962Z,81.47
2023-01-27T15:40:06.113Z,80.66
2023-01-27T15:42:52.640Z,80.40
2023-01-27T15:45:37.071Z,79.19
2023-01-27T15:48:11.873Z,78.67
2023-01-27T15:50:45.620Z,79.03
2023-01-27T15:53:17.543Z,78.52
2023-01-27T15:55:52.750Z,79.15
2023-01-27T15:58:22.485Z,78.36
2023-01-27T16:00:54.079Z,79.10
2023-01-27T16:03:26.516Z,78.48
2023-01-27T16:05:58.619Z,78.13
2023-01-27T16:08:25.845Z,77.70
2023-01-27T16:10:53.449Z,77.71
2023-01-27T16:13:28.345Z,77.51
2023-01-27T16:16:19.993Z,77.04
2023-01-27T16:18:52.101Z,76.96
2023-01-27T16:21:40.416Z,76.55
2023-01-27T16:24:20.281Z,76.42
2023-01-27T16:26:54.526Z,75.91
2023-01-27T16:29:58.797Z,76.04
2023-01-27T16:32:31.060Z,77.39
2023-01-27T16:35:00.483Z,77.56
2023-01-27T16:37:29.463Z,77.46
2023-01-27T16:40:06.305Z,76.57
2023-01-27T16:42:35.698Z,76.88
2023-01-27T16:45:09.035Z,76.34
2023-01-27T16:47:42.013Z,76.41
2023-01-27T16:50:38.372Z,77.22
2023-01-27T16:53:07.671Z,76.65
2023-01-27T16:55:34.518Z,76.06
2023-01-27T16:58:01.851Z,75.40
2023-01-27T17:00:33.811Z,75.55
2023-01-27T17:03:04.267Z,75.61
2023-01-27T17:05:31.009Z,75.43
2023-01-27T17:08:02.944Z,75.77
2023-01-27T17:10:34.855Z,75.71
2023-01-27T17:13:01.882Z,75.58
2023-01-27T17:15:37.087Z,74.94
2023-01-27T17:18:09.233Z,75.15
2023-01-27T17:20:39.168Z,75.47
2023-01-27T17:23:06.013Z,75.14
2023-01-27T17:25:34.952Z,75.35
2023-01-27T17:28:04.221Z,74.79
2023-01-27T17:30:37.119Z,75.87
2023-01-27T17:33:06.097Z,76.03
2023-01-27T17:35:35.518Z,75.71
2023-01-27T17:38:25.073Z,75.34
2023-01-27T17:40:53.659Z,75.41
2023-01-27T17:43:32.040Z,76.38
2023-01-27T17:46:04.957Z,76.36
2023-01-27T17:48:56.073Z,75.91
2023-01-27T17:51:29.265Z,74.57
2023-01-27T17:53:56.692Z,74.61
2023-01-27T17:56:28.324Z,74.56
2023-01-27T17:59:04.074Z,73.93
2023-01-27T18:01:31.346Z,74.71
2023-01-27T18:03:59.293Z,75.14
2023-01-27T18:06:29.047Z,74.71
2023-01-27T18:08:57.592Z,74.59
2023-01-27T18:11:31.365Z,74.30
2023-01-27T18:14:01.277Z,74.48
2023-01-27T18:16:28.064Z,76.21
2023-01-27T18:19:06.128Z,74.91
2023-01-27T18:21:36.745Z,75.23
2023-01-27T18:24:16.805Z,74.90
2023-01-27T18:26:43.756Z,74.37
2023-01-27T18:29:30.690Z,74.64
2023-01-27T18:31:59.450Z,75.04
2023-01-27T18:34:33.349Z,74.09
2023-01-27T18:37:28.601Z,74.09
2023-01-27T18:39:56.572Z,74.14
2023-01-27T18:42:29.018Z,73.43
2023-01-27T18:44:56.251Z,72.97
2023-01-27T18:47:32.309Z,72.41
2023-01-27T18:50:00.723Z,73.31
2023-01-27T18:52:28.859Z,72.40
2023-01-27T18:55:26.484Z,72.08
2023-01-27T18:57:57.970Z,71.92
2023-01-27T19:00:25.878Z,72.27
2023-01-27T19:02:54.626Z,72.62
2023-01-27T19:05:24.511Z,73.18
2023-01-27T19:07:51.192Z,73.16
2023-01-27T19:10:20.728Z,75.08
2023-01-27T19:12:47.392Z,75.97
2023-01-27T19:15:15.155Z,74.98
2023-01-27T19:17:43.247Z,74.42
2023-01-27T19:20:14.976Z,74.01
2023-01-27T19:22:42.068Z,73.93
2023-01-27T19:25:09.353Z,72.79
2023-01-27T19:27:37.855Z,74.22
2023-01-27T19:30:32.631Z,73.49
2023-01-27T19:32:59.495Z,74.43
2023-01-27T19:35:29.158Z,74.04
2023-01-27T19:37:56.326Z,73.11
2023-01-27T19:40:25.302Z,72.16
2023-01-27T19:42:52.181Z,71.87
2023-01-27T19:45:19.615Z,73.05
2023-01-27T19:47:49.153Z,73.02
2023-01-27T19:50:24.966Z,72.28
2023-01-27T19:52:51.931Z,71.93
2023-01-27T19:55:20.805Z,73.46
2023-01-27T19:57:48.081Z,73.21
2023-01-27T20:00:37.906Z,72.23
2023-01-27T20:03:07.651Z,72.83
2023-01-27T20:05:35.568Z,72.44
2023-01-27T20:08:02.617Z,72.58
2023-01-27T20:10:32.545Z,72.66
2023-01-27T20:13:04.938Z,72.21
2023-01-27T20:15:34.488Z,71.51
2023-01-27T20:18:01.185Z,72.03
2023-01-27T20:20:27.852Z,72.17
2023-01-27T20:22:54.895Z,73.92
2023-01-27T20:25:23.950Z,73.38
2023-01-27T20:27:53.639Z,73.02
2023-01-27T20:30:23.196Z,72.47
2023-01-27T20:32:55.914Z,72.10
2023-01-27T20:35:23.023Z,72.02
2023-01-27T20:37:51.218Z,72.35
2023-01-27T20:40:21.425Z,73.41
2023-01-27T20:42:48.337Z,73.47
2023-01-27T20:45:15.783Z,74.17
2023-01-27T20:47:42.779Z,74.36
2023-01-27T20:50:10.376Z,74.26
2023-01-27T20:52:38.252Z,73.93
2023-01-27T20:55:05.344Z,73.74
2023-01-27T20:57:32.125Z,73.30
2023-01-27T20:59:58.980Z,72.92
2023-01-27T21:02:29.693Z,72.34
2023-01-27T21:04:56.528Z,72.21
2023-01-27T21:07:24.239Z,72.26
2023-01-27T21:09:53.576Z,72.19
2023-01-27T21:12:21.287Z,71.41
2023-01-27T21:14:48.140Z,71.00
2023-01-27T21:17:14.937Z,71.02
2023-01-27T21:19:41.727Z,71.79
2023-01-27T21:22:08.396Z,71.80
2023-01-27T21:24:35.742Z,71.66
2023-01-27T21:27:05.582Z,71.09
2023-01-27T21:29:32.408Z,70.81
2023-01-27T21:31:59.441Z,69.91
2023-01-27T21:34:26.303Z,69.74
2023-01-27T21:36:55.016Z,70.50
2023-01-27T21:39:22.630Z,71.32
2023-01-27T21:41:55.284Z,71.41
2023-01-27T21:44:43.304Z,70.43
2023-01-27T21:47:12.813Z,70.46
2023-01-27T21:49:59.690Z,69.95
2023-01-27T21:52:39.824Z,71.52
2023-01-27T21:55:11.323Z,71.97
2023-01-27T21:57:38.478Z,70.63
2023-01-27T22:00:07.154Z,70.99
2023-01-27T22:02:40.789Z,71.57
2023-01-27T22:05:08.558Z,70.88
2023-01-27T22:07:38.429Z,71.03
2023-01-27T22:10:13.742Z,71.14
2023-01-27T22:12:40.428Z,70.76
2023-01-27T22:15:08.556Z,71.18
2023-01-27T22:17:35.370Z,70.69
2023-01-27T22:20:02.921Z,71.14
2023-01-27T22:22:29.645Z,70.03
2023-01-27T22:24:56.407Z,70.29
2023-01-27T22:27:23.131Z,69.95
2023-01-27T22:29:49.764Z,70.56
2023-01-27T22:32:16.472Z,71.07
2023-01-27T22:34:44.525Z,69.33
2023-01-27T22:37:11.285Z,69.56
2023-01-27T22:39:38.366Z,69.74
2023-01-27T22:42:05.089Z,69.12
2023-01-27T22:44:31.751Z,68.81
2023-01-27T22:46:58.358Z,68.76
2023-01-27T22:49:25.019Z,68.74
2023-01-27T22:51:51.737Z,69.42
2023-01-27T22:54:18.413Z,68.82
2023-01-27T22:56:45.098Z,68.94
2023-01-27T22:59:13.342Z,68.42
2023-01-27T23:01:40.891Z,68.18
2023-01-27T23:04:07.604Z,68.25
2023-01-27T23:06:34.468Z,68.04
2023-01-27T23:09:01.151Z,68.20
2023-01-27T23:11:27.798Z,68.14
2023-01-27T23:13:54.630Z,68.72
2023-01-27T23:16:24.491Z,68.96
2023-01-27T23:18:51.125Z,68.54
2023-01-27T23:21:20.898Z,68.14
2023-01-27T23:23:50.005Z,68.86
2023-01-27T23:26:16.839Z,68.69
2023-01-27T23:28:43.445Z,68.62
2023-01-27T23:31:11.299Z,68.24
2023-01-27T23:33:42.135Z,68.24
2023-01-27T23:36:10.275Z,68.83
2023-01-27T23:38:39.929Z,68.68
2023-01-27T23:41:09.193Z,68.36
2023-01-27T23:43:35.844Z,68.37
2023-01-27T23:46:02.557Z,68.05
2023-01-27T23:48:32.250Z,68.31
2023-01-27T23:50:58.861Z,68.76
2023-01-27T23:53:25.558Z,69.14
2023-01-27T23:55:58.801Z,69.17
2023-01-27T23:58:26.443Z,68.96
